sensor_id;sensor_type;location;lat;lon;timestamp;P1;durP1;ratioP1;P2;durP2;ratioP2
12966;SDS011;6548;49.996;8.238;2022-10-16T00:01:11;2.05;;;1.38;;
12966;SDS011;6548;49.996;8.238;2022-10-16T00:03:39;1.85;;;1.30;;
12966;SDS011;6548;49.996;8.238;2022-10-16T00:06:06;3.70;;;1.60;;
12966;SDS011;6548;49.996;8.238;2022-10-16T00:08:32;3.17;;;1.20;;
12966;SDS011;6548;49.996;8.238;2022-10-16T00:11:02;2.70;;;1.20;;
12966;SDS011;6548;49.996;8.238;2022-10-16T00:13:33;2.63;;;1.30;;
12966;SDS011;6548;49.996;8.238;2022-10-16T00:16:00;1.25;;;0.90;;
12966;SDS011;6548;49.996;8.238;2022-10-16T00:18:27;2.33;;;1.48;;
12966;SDS011;6548;49.996;8.238;2022-10-16T00:20:53;1.67;;;1.33;;
12966;SDS011;6548;49.996;8.238;2022-10-16T00:23:19;1.90;;;1.48;;
12966;SDS011;6548;49.996;8.238;2022-10-16T00:25:53;5.03;;;1.88;;
12966;SDS011;6548;49.996;8.238;2022-10-16T00:28:23;2.85;;;1.50;;
12966;SDS011;6548;49.996;8.238;2022-10-16T00:30:48;1.92;;;1.50;;
12966;SDS011;6548;49.996;8.238;2022-10-16T00:33:14;1.95;;;1.75;;
12966;SDS011;6548;49.996;8.238;2022-10-16T00:35:40;2.15;;;1.88;;
12966;SDS011;6548;49.996;8.238;2022-10-16T00:38:05;2.35;;;1.85;;
12966;SDS011;6548;49.996;8.238;2022-10-16T00:40:31;2.15;;;1.60;;
12966;SDS011;6548;49.996;8.238;2022-10-16T00:42:56;1.95;;;1.30;;
12966;SDS011;6548;49.996;8.238;2022-10-16T00:45:23;3.25;;;1.90;;
12966;SDS011;6548;49.996;8.238;2022-10-16T00:47:49;2.92;;;1.85;;
12966;SDS011;6548;49.996;8.238;2022-10-16T00:50:18;3.00;;;1.83;;
12966;SDS011;6548;49.996;8.238;2022-10-16T00:52:47;4.95;;;1.80;;
12966;SDS011;6548;49.996;8.238;2022-10-16T00:55:14;2.92;;;1.50;;
12966;SDS011;6548;49.996;8.238;2022-10-16T00:57:41;2.55;;;1.60;;
12966;SDS011;6548;49.996;8.238;2022-10-16T01:00:09;2.33;;;1.75;;
12966;SDS011;6548;49.996;8.238;2022-10-16T01:02:36;2.42;;;2.13;;
12966;SDS011;6548;49.996;8.238;2022-10-16T01:05:02;3.15;;;1.52;;
12966;SDS011;6548;49.996;8.238;2022-10-16T01:12:59;4.55;;;1.60;;
12966;SDS011;6548;49.996;8.238;2022-10-16T01:15:30;3.03;;;1.77;;
12966;SDS011;6548;49.996;8.238;2022-10-16T01:18:03;1.58;;;1.48;;
12966;SDS011;6548;49.996;8.238;2022-10-16T01:21:05;3.67;;;1.80;;
12966;SDS011;6548;49.996;8.238;2022-10-16T01:23:40;2.03;;;1.48;;
12966;SDS011;6548;49.996;8.238;2022-10-16T01:29:01;5.00;;;1.60;;
12966;SDS011;6548;49.996;8.238;2022-10-16T01:31:34;3.97;;;1.80;;
12966;SDS011;6548;49.996;8.238;2022-10-16T01:34:06;3.45;;;2.00;;
12966;SDS011;6548;49.996;8.238;2022-10-16T01:36:40;2.67;;;1.90;;
12966;SDS011;6548;49.996;8.238;2022-10-16T01:39:10;3.33;;;2.00;;
12966;SDS011;6548;49.996;8.238;2022-10-16T01:41:38;2.83;;;1.52;;
12966;SDS011;6548;49.996;8.238;2022-10-16T01:44:11;1.70;;;1.47;;
12966;SDS011;6548;49.996;8.238;2022-10-16T01:46:43;2.20;;;1.73;;
12966;SDS011;6548;49.996;8.238;2022-10-16T01:49:10;2.75;;;1.60;;
12966;SDS011;6548;49.996;8.238;2022-10-16T01:51:37;3.08;;;1.83;;
12966;SDS011;6548;49.996;8.238;2022-10-16T01:54:04;4.00;;;2.10;;
12966;SDS011;6548;49.996;8.238;2022-10-16T01:56:32;3.88;;;2.08;;
12966;SDS011;6548;49.996;8.238;2022-10-16T01:59:05;3.05;;;1.95;;
12966;SDS011;6548;49.996;8.238;2022-10-16T02:01:35;1.80;;;1.50;;
12966;SDS011;6548;49.996;8.238;2022-10-16T02:04:09;3.15;;;2.05;;
12966;SDS011;6548;49.996;8.238;2022-10-16T02:07:04;4.25;;;1.88;;
12966;SDS011;6548;49.996;8.238;2022-10-16T02:09:33;5.00;;;2.60;;
12966;SDS011;6548;49.996;8.238;2022-10-16T02:11:59;2.70;;;2.13;;
12966;SDS011;6548;49.996;8.238;2022-10-16T02:14:31;2.67;;;2.25;;
12966;SDS011;6548;49.996;8.238;2022-10-16T02:16:57;2.10;;;1.85;;
12966;SDS011;6548;49.996;8.238;2022-10-16T02:19:22;3.80;;;2.72;;
12966;SDS011;6548;49.996;8.238;2022-10-16T02:21:54;2.88;;;2.45;;
12966;SDS011;6548;49.996;8.238;2022-10-16T02:29:53;5.38;;;2.33;;
12966;SDS011;6548;49.996;8.238;2022-10-16T02:32:42;3.05;;;1.90;;
12966;SDS011;6548;49.996;8.238;2022-10-16T02:35:09;3.60;;;2.08;;
12966;SDS011;6548;49.996;8.238;2022-10-16T02:37:35;3.13;;;1.90;;
12966;SDS011;6548;49.996;8.238;2022-10-16T02:40:03;3.53;;;1.70;;
12966;SDS011;6548;49.996;8.238;2022-10-16T02:42:36;3.47;;;2.08;;
12966;SDS011;6548;49.996;8.238;2022-10-16T02:45:04;4.22;;;2.15;;
12966;SDS011;6548;49.996;8.238;2022-10-16T02:47:31;6.45;;;2.45;;
12966;SDS011;6548;49.996;8.238;2022-10-16T02:49:56;2.83;;;2.60;;
12966;SDS011;6548;49.996;8.238;2022-10-16T02:52:22;3.83;;;2.80;;
12966;SDS011;6548;49.996;8.238;2022-10-16T02:54:48;4.50;;;2.80;;
12966;SDS011;6548;49.996;8.238;2022-10-16T02:57:13;5.60;;;2.38;;
12966;SDS011;6548;49.996;8.238;2022-10-16T02:59:39;2.95;;;2.47;;
12966;SDS011;6548;49.996;8.238;2022-10-16T03:02:05;3.55;;;2.75;;
12966;SDS011;6548;49.996;8.238;2022-10-16T03:04:30;2.58;;;2.00;;
12966;SDS011;6548;49.996;8.238;2022-10-16T03:06:56;2.97;;;2.42;;
12966;SDS011;6548;49.996;8.238;2022-10-16T03:09:21;3.35;;;2.63;;
12966;SDS011;6548;49.996;8.238;2022-10-16T03:11:47;9.23;;;3.22;;
12966;SDS011;6548;49.996;8.238;2022-10-16T03:14:13;3.45;;;2.30;;
12966;SDS011;6548;49.996;8.238;2022-10-16T03:16:38;4.32;;;2.88;;
12966;SDS011;6548;49.996;8.238;2022-10-16T03:19:04;5.18;;;2.05;;
12966;SDS011;6548;49.996;8.238;2022-10-16T03:21:29;3.38;;;2.30;;
12966;SDS011;6548;49.996;8.238;2022-10-16T03:23:55;3.97;;;2.58;;
12966;SDS011;6548;49.996;8.238;2022-10-16T03:26:20;4.78;;;3.00;;
12966;SDS011;6548;49.996;8.238;2022-10-16T03:28:46;2.30;;;2.10;;
12966;SDS011;6548;49.996;8.238;2022-10-16T03:31:11;5.95;;;3.72;;
12966;SDS011;6548;49.996;8.238;2022-10-16T03:33:37;3.42;;;2.60;;
12966;SDS011;6548;49.996;8.238;2022-10-16T03:36:03;3.92;;;2.38;;
12966;SDS011;6548;49.996;8.238;2022-10-16T03:38:28;4.57;;;2.58;;
12966;SDS011;6548;49.996;8.238;2022-10-16T03:40:54;4.78;;;2.10;;
12966;SDS011;6548;49.996;8.238;2022-10-16T03:43:19;3.15;;;2.10;;
12966;SDS011;6548;49.996;8.238;2022-10-16T03:45:45;4.22;;;2.97;;
12966;SDS011;6548;49.996;8.238;2022-10-16T03:48:11;6.03;;;2.25;;
12966;SDS011;6548;49.996;8.238;2022-10-16T03:50:36;3.30;;;2.40;;
12966;SDS011;6548;49.996;8.238;2022-10-16T03:53:02;4.10;;;2.75;;
12966;SDS011;6548;49.996;8.238;2022-10-16T03:55:28;2.92;;;2.28;;
12966;SDS011;6548;49.996;8.238;2022-10-16T03:57:53;2.30;;;2.03;;
12966;SDS011;6548;49.996;8.238;2022-10-16T04:00:19;4.40;;;2.20;;
12966;SDS011;6548;49.996;8.238;2022-10-16T04:02:44;4.03;;;2.28;;
12966;SDS011;6548;49.996;8.238;2022-10-16T04:05:10;4.47;;;2.33;;
12966;SDS011;6548;49.996;8.238;2022-10-16T04:07:36;3.20;;;2.55;;
12966;SDS011;6548;49.996;8.238;2022-10-16T04:10:02;4.57;;;2.30;;
12966;SDS011;6548;49.996;8.238;2022-10-16T04:12:28;2.55;;;1.95;;
12966;SDS011;6548;49.996;8.238;2022-10-16T04:14:54;4.65;;;2.40;;
12966;SDS011;6548;49.996;8.238;2022-10-16T04:17:19;2.20;;;1.90;;
12966;SDS011;6548;49.996;8.238;2022-10-16T04:19:45;2.35;;;2.15;;
12966;SDS011;6548;49.996;8.238;2022-10-16T04:22:11;2.67;;;2.33;;
12966;SDS011;6548;49.996;8.238;2022-10-16T04:24:36;2.40;;;1.98;;
12966;SDS011;6548;49.996;8.238;2022-10-16T04:27:02;4.63;;;1.85;;
12966;SDS011;6548;49.996;8.238;2022-10-16T04:29:27;3.00;;;2.60;;
12966;SDS011;6548;49.996;8.238;2022-10-16T04:31:53;2.65;;;1.90;;
12966;SDS011;6548;49.996;8.238;2022-10-16T04:34:18;2.53;;;2.22;;
12966;SDS011;6548;49.996;8.238;2022-10-16T04:36:46;3.25;;;2.17;;
12966;SDS011;6548;49.996;8.238;2022-10-16T04:39:13;3.38;;;2.03;;
12966;SDS011;6548;49.996;8.238;2022-10-16T04:41:39;3.30;;;1.80;;
12966;SDS011;6548;49.996;8.238;2022-10-16T04:44:04;2.55;;;2.00;;
12966;SDS011;6548;49.996;8.238;2022-10-16T04:46:30;4.80;;;3.03;;
12966;SDS011;6548;49.996;8.238;2022-10-16T04:48:55;2.30;;;2.10;;
12966;SDS011;6548;49.996;8.238;2022-10-16T04:51:21;2.67;;;1.85;;
12966;SDS011;6548;49.996;8.238;2022-10-16T04:53:47;1.77;;;1.60;;
12966;SDS011;6548;49.996;8.238;2022-10-16T04:56:12;3.53;;;1.60;;
12966;SDS011;6548;49.996;8.238;2022-10-16T04:58:39;2.15;;;1.88;;
12966;SDS011;6548;49.996;8.238;2022-10-16T05:01:05;2.03;;;1.83;;
12966;SDS011;6548;49.996;8.238;2022-10-16T05:03:30;1.63;;;1.52;;
12966;SDS011;6548;49.996;8.238;2022-10-16T05:05:56;2.10;;;1.85;;
12966;SDS011;6548;49.996;8.238;2022-10-16T05:08:21;2.28;;;1.83;;
12966;SDS011;6548;49.996;8.238;2022-10-16T05:10:47;1.40;;;1.30;;
12966;SDS011;6548;49.996;8.238;2022-10-16T05:13:12;3.58;;;1.42;;
12966;SDS011;6548;49.996;8.238;2022-10-16T05:15:38;1.10;;;1.00;;
12966;SDS011;6548;49.996;8.238;2022-10-16T05:18:04;2.03;;;1.40;;
12966;SDS011;6548;49.996;8.238;2022-10-16T05:20:30;1.70;;;1.30;;
12966;SDS011;6548;49.996;8.238;2022-10-16T05:22:55;1.75;;;1.55;;
12966;SDS011;6548;49.996;8.238;2022-10-16T05:25:21;1.95;;;1.52;;
12966;SDS011;6548;49.996;8.238;2022-10-16T05:27:47;1.88;;;1.50;;
12966;SDS011;6548;49.996;8.238;2022-10-16T05:30:13;3.05;;;1.65;;
12966;SDS011;6548;49.996;8.238;2022-10-16T05:32:39;2.05;;;1.65;;
12966;SDS011;6548;49.996;8.238;2022-10-16T05:35:05;1.58;;;1.48;;
12966;SDS011;6548;49.996;8.238;2022-10-16T05:37:31;2.83;;;2.00;;
12966;SDS011;6548;49.996;8.238;2022-10-16T05:39:57;3.67;;;1.75;;
12966;SDS011;6548;49.996;8.238;2022-10-16T05:42:23;2.10;;;1.90;;
12966;SDS011;6548;49.996;8.238;2022-10-16T05:44:49;2.58;;;2.38;;
12966;SDS011;6548;49.996;8.238;2022-10-16T05:47:14;3.65;;;2.00;;
12966;SDS011;6548;49.996;8.238;2022-10-16T05:49:40;3.20;;;2.22;;
12966;SDS011;6548;49.996;8.238;2022-10-16T05:52:06;2.78;;;2.22;;
12966;SDS011;6548;49.996;8.238;2022-10-16T05:54:31;2.15;;;1.67;;
12966;SDS011;6548;49.996;8.238;2022-10-16T05:56:57;4.32;;;2.13;;
12966;SDS011;6548;49.996;8.238;2022-10-16T05:59:22;4.53;;;2.35;;
12966;SDS011;6548;49.996;8.238;2022-10-16T06:01:48;2.92;;;2.42;;
12966;SDS011;6548;49.996;8.238;2022-10-16T06:04:14;4.97;;;2.40;;
12966;SDS011;6548;49.996;8.238;2022-10-16T06:06:39;4.40;;;2.15;;
12966;SDS011;6548;49.996;8.238;2022-10-16T06:09:05;1.88;;;1.73;;
12966;SDS011;6548;49.996;8.238;2022-10-16T06:11:31;4.30;;;1.95;;
12966;SDS011;6548;49.996;8.238;2022-10-16T06:13:59;2.85;;;2.22;;
12966;SDS011;6548;49.996;8.238;2022-10-16T06:16:27;3.45;;;2.17;;
12966;SDS011;6548;49.996;8.238;2022-10-16T06:18:54;3.15;;;2.58;;
12966;SDS011;6548;49.996;8.238;2022-10-16T06:21:25;4.65;;;2.55;;
12966;SDS011;6548;49.996;8.238;2022-10-16T06:23:52;2.47;;;2.28;;
12966;SDS011;6548;49.996;8.238;2022-10-16T06:26:19;4.45;;;2.50;;
12966;SDS011;6548;49.996;8.238;2022-10-16T06:28:46;2.65;;;2.05;;
12966;SDS011;6548;49.996;8.238;2022-10-16T06:31:12;4.80;;;2.42;;
12966;SDS011;6548;49.996;8.238;2022-10-16T06:33:38;3.75;;;2.83;;
12966;SDS011;6548;49.996;8.238;2022-10-16T06:36:09;2.92;;;2.28;;
12966;SDS011;6548;49.996;8.238;2022-10-16T06:38:42;6.40;;;3.55;;
12966;SDS011;6548;49.996;8.238;2022-10-16T06:41:09;4.28;;;3.88;;
12966;SDS011;6548;49.996;8.238;2022-10-16T06:43:37;4.38;;;2.60;;
12966;SDS011;6548;49.996;8.238;2022-10-16T06:46:04;2.33;;;2.13;;
12966;SDS011;6548;49.996;8.238;2022-10-16T06:48:32;2.88;;;2.17;;
12966;SDS011;6548;49.996;8.238;2022-10-16T06:53:32;3.70;;;2.42;;
12966;SDS011;6548;49.996;8.238;2022-10-16T06:56:06;3.60;;;2.60;;
12966;SDS011;6548;49.996;8.238;2022-10-16T06:58:36;2.95;;;2.60;;
12966;SDS011;6548;49.996;8.238;2022-10-16T07:01:02;3.00;;;2.47;;
12966;SDS011;6548;49.996;8.238;2022-10-16T07:03:28;4.88;;;3.20;;
12966;SDS011;6548;49.996;8.238;2022-10-16T07:05:54;4.03;;;2.90;;
12966;SDS011;6548;49.996;8.238;2022-10-16T07:08:19;5.68;;;3.13;;
12966;SDS011;6548;49.996;8.238;2022-10-16T07:10:45;4.05;;;2.78;;
12966;SDS011;6548;49.996;8.238;2022-10-16T07:13:11;3.72;;;3.20;;
12966;SDS011;6548;49.996;8.238;2022-10-16T07:15:39;3.58;;;2.90;;
12966;SDS011;6548;49.996;8.238;2022-10-16T07:18:05;7.20;;;3.00;;
12966;SDS011;6548;49.996;8.238;2022-10-16T07:20:31;4.63;;;2.90;;
12966;SDS011;6548;49.996;8.238;2022-10-16T07:22:57;2.72;;;2.40;;
12966;SDS011;6548;49.996;8.238;2022-10-16T07:25:22;5.13;;;2.50;;
12966;SDS011;6548;49.996;8.238;2022-10-16T07:27:48;5.28;;;3.05;;
12966;SDS011;6548;49.996;8.238;2022-10-16T07:30:14;3.60;;;2.78;;
12966;SDS011;6548;49.996;8.238;2022-10-16T07:32:39;4.05;;;2.60;;
12966;SDS011;6548;49.996;8.238;2022-10-16T07:35:05;4.30;;;2.90;;
12966;SDS011;6548;49.996;8.238;2022-10-16T07:37:31;4.82;;;3.40;;
12966;SDS011;6548;49.996;8.238;2022-10-16T07:39:56;3.78;;;2.80;;
12966;SDS011;6548;49.996;8.238;2022-10-16T07:42:22;3.28;;;2.53;;
12966;SDS011;6548;49.996;8.238;2022-10-16T07:44:48;4.95;;;3.00;;
12966;SDS011;6548;49.996;8.238;2022-10-16T07:47:13;4.88;;;3.10;;
12966;SDS011;6548;49.996;8.238;2022-10-16T07:49:39;6.40;;;3.53;;
12966;SDS011;6548;49.996;8.238;2022-10-16T07:52:04;3.80;;;3.15;;
12966;SDS011;6548;49.996;8.238;2022-10-16T07:54:30;6.55;;;2.70;;
12966;SDS011;6548;49.996;8.238;2022-10-16T07:56:55;4.97;;;2.42;;
12966;SDS011;6548;49.996;8.238;2022-10-16T07:59:21;5.68;;;2.88;;
12966;SDS011;6548;49.996;8.238;2022-10-16T08:01:46;5.80;;;3.20;;
12966;SDS011;6548;49.996;8.238;2022-10-16T08:04:14;7.40;;;4.35;;
12966;SDS011;6548;49.996;8.238;2022-10-16T08:06:40;8.10;;;4.65;;
12966;SDS011;6548;49.996;8.238;2022-10-16T08:09:06;4.05;;;3.20;;
12966;SDS011;6548;49.996;8.238;2022-10-16T08:11:32;3.58;;;3.08;;
12966;SDS011;6548;49.996;8.238;2022-10-16T08:13:58;4.53;;;3.50;;
12966;SDS011;6548;49.996;8.238;2022-10-16T08:19:26;5.60;;;4.03;;
12966;SDS011;6548;49.996;8.238;2022-10-16T08:21:52;5.93;;;3.88;;
12966;SDS011;6548;49.996;8.238;2022-10-16T08:24:18;4.07;;;3.45;;
12966;SDS011;6548;49.996;8.238;2022-10-16T08:26:43;5.45;;;3.65;;
12966;SDS011;6548;49.996;8.238;2022-10-16T08:29:09;4.95;;;3.83;;
12966;SDS011;6548;49.996;8.238;2022-10-16T08:31:34;7.70;;;4.07;;
12966;SDS011;6548;49.996;8.238;2022-10-16T08:34:00;8.25;;;3.88;;
12966;SDS011;6548;49.996;8.238;2022-10-16T08:36:25;4.60;;;3.83;;
12966;SDS011;6548;49.996;8.238;2022-10-16T08:38:51;4.43;;;3.90;;
12966;SDS011;6548;49.996;8.238;2022-10-16T08:46:19;6.38;;;3.90;;
12966;SDS011;6548;49.996;8.238;2022-10-16T08:48:47;5.38;;;3.90;;
12966;SDS011;6548;49.996;8.238;2022-10-16T08:51:22;5.78;;;3.90;;
12966;SDS011;6548;49.996;8.238;2022-10-16T08:53:52;6.07;;;3.65;;
12966;SDS011;6548;49.996;8.238;2022-10-16T08:56:21;7.60;;;2.85;;
12966;SDS011;6548;49.996;8.238;2022-10-16T08:58:47;5.63;;;3.22;;
12966;SDS011;6548;49.996;8.238;2022-10-16T09:01:14;5.57;;;2.85;;
12966;SDS011;6548;49.996;8.238;2022-10-16T09:17:04;4.18;;;2.92;;
12966;SDS011;6548;49.996;8.238;2022-10-16T09:19:57;4.45;;;2.80;;
12966;SDS011;6548;49.996;8.238;2022-10-16T09:22:25;4.07;;;2.55;;
12966;SDS011;6548;49.996;8.238;2022-10-16T09:24:54;4.28;;;2.58;;
12966;SDS011;6548;49.996;8.238;2022-10-16T09:27:24;4.47;;;3.03;;
12966;SDS011;6548;49.996;8.238;2022-10-16T09:29:51;4.38;;;2.50;;
12966;SDS011;6548;49.996;8.238;2022-10-16T09:32:20;5.97;;;2.55;;
12966;SDS011;6548;49.996;8.238;2022-10-16T09:34:47;3.55;;;2.75;;
12966;SDS011;6548;49.996;8.238;2022-10-16T09:37:17;4.15;;;2.67;;
12966;SDS011;6548;49.996;8.238;2022-10-16T09:39:50;3.95;;;2.30;;
12966;SDS011;6548;49.996;8.238;2022-10-16T09:42:32;3.22;;;2.17;;
12966;SDS011;6548;49.996;8.238;2022-10-16T09:45:01;3.10;;;2.53;;
12966;SDS011;6548;49.996;8.238;2022-10-16T09:47:29;3.50;;;2.33;;
12966;SDS011;6548;49.996;8.238;2022-10-16T09:50:00;4.15;;;2.15;;
12966;SDS011;6548;49.996;8.238;2022-10-16T09:52:30;2.45;;;1.83;;
12966;SDS011;6548;49.996;8.238;2022-10-16T09:54:57;3.88;;;1.98;;
12966;SDS011;6548;49.996;8.238;2022-10-16T10:00:23;1.88;;;1.33;;
12966;SDS011;6548;49.996;8.238;2022-10-16T10:02:49;1.50;;;1.40;;
12966;SDS011;6548;49.996;8.238;2022-10-16T10:05:22;2.10;;;1.90;;
12966;SDS011;6548;49.996;8.238;2022-10-16T10:07:54;1.35;;;1.17;;
12966;SDS011;6548;49.996;8.238;2022-10-16T10:10:28;3.13;;;0.98;;
12966;SDS011;6548;49.996;8.238;2022-10-16T10:12:56;1.95;;;1.35;;
12966;SDS011;6548;49.996;8.238;2022-10-16T10:15:23;5.47;;;2.60;;
12966;SDS011;6548;49.996;8.238;2022-10-16T10:17:50;2.05;;;1.55;;
12966;SDS011;6548;49.996;8.238;2022-10-16T10:20:31;2.72;;;2.03;;
12966;SDS011;6548;49.996;8.238;2022-10-16T10:22:59;4.95;;;1.83;;
12966;SDS011;6548;49.996;8.238;2022-10-16T10:28:59;2.58;;;2.30;;
12966;SDS011;6548;49.996;8.238;2022-10-16T10:31:55;5.15;;;1.92;;
12966;SDS011;6548;49.996;8.238;2022-10-16T10:45:44;3.20;;;1.33;;
12966;SDS011;6548;49.996;8.238;2022-10-16T10:51:12;3.43;;;1.30;;
12966;SDS011;6548;49.996;8.238;2022-10-16T10:56:43;1.98;;;1.17;;
12966;SDS011;6548;49.996;8.238;2022-10-16T10:59:41;1.70;;;1.02;;
12966;SDS011;6548;49.996;8.238;2022-10-16T11:05:41;1.00;;;0.90;;
12966;SDS011;6548;49.996;8.238;2022-10-16T11:08:20;1.10;;;1.00;;
12966;SDS011;6548;49.996;8.238;2022-10-16T11:11:14;1.05;;;0.90;;
12966;SDS011;6548;49.996;8.238;2022-10-16T11:16:50;2.17;;;1.20;;
12966;SDS011;6548;49.996;8.238;2022-10-16T11:19:33;2.15;;;1.08;;
12966;SDS011;6548;49.996;8.238;2022-10-16T11:22:15;2.20;;;1.45;;
12966;SDS011;6548;49.996;8.238;2022-10-16T11:27:43;1.88;;;1.63;;
12966;SDS011;6548;49.996;8.238;2022-10-16T11:30:14;1.63;;;1.40;;
12966;SDS011;6548;49.996;8.238;2022-10-16T11:33:04;2.33;;;1.38;;
12966;SDS011;6548;49.996;8.238;2022-10-16T11:35:38;2.25;;;1.38;;
12966;SDS011;6548;49.996;8.238;2022-10-16T11:38:14;1.65;;;1.42;;
12966;SDS011;6548;49.996;8.238;2022-10-16T11:40:51;2.88;;;1.70;;
12966;SDS011;6548;49.996;8.238;2022-10-16T11:43:28;2.03;;;1.27;;
12966;SDS011;6548;49.996;8.238;2022-10-16T11:46:20;2.00;;;1.35;;
12966;SDS011;6548;49.996;8.238;2022-10-16T11:48:57;1.10;;;1.00;;
12966;SDS011;6548;49.996;8.238;2022-10-16T11:54:48;2.30;;;1.40;;
12966;SDS011;6548;49.996;8.238;2022-10-16T11:56:59;1.52;;;1.42;;
12966;SDS011;6548;49.996;8.238;2022-10-16T11:59:32;2.35;;;1.58;;
12966;SDS011;6548;49.996;8.238;2022-10-16T12:10:33;1.73;;;1.42;;
12966;SDS011;6548;49.996;8.238;2022-10-16T12:13:02;2.75;;;1.35;;
12966;SDS011;6548;49.996;8.238;2022-10-16T12:15:30;1.25;;;1.10;;
12966;SDS011;6548;49.996;8.238;2022-10-16T12:17:59;2.78;;;1.23;;
12966;SDS011;6548;49.996;8.238;2022-10-16T12:20:26;2.38;;;1.50;;
12966;SDS011;6548;49.996;8.238;2022-10-16T12:23:00;2.90;;;1.45;;
12966;SDS011;6548;49.996;8.238;2022-10-16T12:25:32;2.25;;;1.38;;
12966;SDS011;6548;49.996;8.238;2022-10-16T12:30:56;2.78;;;1.20;;
12966;SDS011;6548;49.996;8.238;2022-10-16T12:33:25;3.45;;;1.63;;
12966;SDS011;6548;49.996;8.238;2022-10-16T12:35:59;1.63;;;1.50;;
12966;SDS011;6548;49.996;8.238;2022-10-16T12:38:28;3.47;;;1.88;;
12966;SDS011;6548;49.996;8.238;2022-10-16T12:40:56;2.22;;;1.27;;
12966;SDS011;6548;49.996;8.238;2022-10-16T12:43:27;1.77;;;1.17;;
12966;SDS011;6548;49.996;8.238;2022-10-16T12:46:19;1.50;;;1.30;;
12966;SDS011;6548;49.996;8.238;2022-10-16T12:51:38;2.80;;;0.98;;
12966;SDS011;6548;49.996;8.238;2022-10-16T13:11:06;1.63;;;1.25;;
12966;SDS011;6548;49.996;8.238;2022-10-16T13:21:51;1.35;;;1.20;;
12966;SDS011;6548;49.996;8.238;2022-10-16T13:32:38;3.15;;;1.33;;
12966;SDS011;6548;49.996;8.238;2022-10-16T13:35:15;1.27;;;1.00;;
12966;SDS011;6548;49.996;8.238;2022-10-16T13:37:48;2.05;;;0.90;;
12966;SDS011;6548;49.996;8.238;2022-10-16T13:40:18;2.22;;;1.13;;
12966;SDS011;6548;49.996;8.238;2022-10-16T13:42:44;2.30;;;1.47;;
12966;SDS011;6548;49.996;8.238;2022-10-16T13:45:17;1.30;;;1.08;;
12966;SDS011;6548;49.996;8.238;2022-10-16T13:47:47;1.75;;;1.25;;
12966;SDS011;6548;49.996;8.238;2022-10-16T13:50:14;2.55;;;1.33;;
12966;SDS011;6548;49.996;8.238;2022-10-16T13:52:42;3.22;;;1.50;;
12966;SDS011;6548;49.996;8.238;2022-10-16T13:55:15;2.40;;;2.13;;
12966;SDS011;6548;49.996;8.238;2022-10-16T13:57:42;2.13;;;1.90;;
12966;SDS011;6548;49.996;8.238;2022-10-16T14:02:53;1.70;;;1.60;;
12966;SDS011;6548;49.996;8.238;2022-10-16T14:05:23;1.95;;;1.70;;
12966;SDS011;6548;49.996;8.238;2022-10-16T14:07:49;4.03;;;1.70;;
12966;SDS011;6548;49.996;8.238;2022-10-16T14:10:21;3.42;;;1.70;;
12966;SDS011;6548;49.996;8.238;2022-10-16T14:12:58;3.22;;;1.70;;
12966;SDS011;6548;49.996;8.238;2022-10-16T14:15:26;2.30;;;1.65;;
12966;SDS011;6548;49.996;8.238;2022-10-16T14:17:54;5.45;;;1.60;;
12966;SDS011;6548;49.996;8.238;2022-10-16T14:20:20;4.45;;;1.80;;
12966;SDS011;6548;49.996;8.238;2022-10-16T14:22:57;4.60;;;1.70;;
12966;SDS011;6548;49.996;8.238;2022-10-16T14:25:26;3.03;;;1.50;;
12966;SDS011;6548;49.996;8.238;2022-10-16T14:28:04;3.63;;;1.60;;
12966;SDS011;6548;49.996;8.238;2022-10-16T14:38:35;4.00;;;2.47;;
12966;SDS011;6548;49.996;8.238;2022-10-16T14:41:03;3.65;;;1.80;;
12966;SDS011;6548;49.996;8.238;2022-10-16T14:43:33;2.47;;;1.92;;
12966;SDS011;6548;49.996;8.238;2022-10-16T14:46:01;2.40;;;1.85;;
12966;SDS011;6548;49.996;8.238;2022-10-16T14:48:31;2.20;;;1.83;;
12966;SDS011;6548;49.996;8.238;2022-10-16T14:50:57;2.47;;;1.65;;
12966;SDS011;6548;49.996;8.238;2022-10-16T14:53:23;2.40;;;2.00;;
12966;SDS011;6548;49.996;8.238;2022-10-16T14:55:48;3.33;;;1.70;;
12966;SDS011;6548;49.996;8.238;2022-10-16T14:58:19;4.05;;;1.98;;
12966;SDS011;6548;49.996;8.238;2022-10-16T15:00:46;2.55;;;1.80;;
12966;SDS011;6548;49.996;8.238;2022-10-16T15:03:12;2.80;;;2.03;;
12966;SDS011;6548;49.996;8.238;2022-10-16T15:05:38;2.88;;;2.00;;
12966;SDS011;6548;49.996;8.238;2022-10-16T15:08:04;2.65;;;1.98;;
12966;SDS011;6548;49.996;8.238;2022-10-16T15:10:29;2.28;;;2.08;;
12966;SDS011;6548;49.996;8.238;2022-10-16T15:12:58;3.85;;;2.10;;
12966;SDS011;6548;49.996;8.238;2022-10-16T15:17:57;2.65;;;2.30;;
12966;SDS011;6548;49.996;8.238;2022-10-16T15:20:26;3.17;;;2.17;;
12966;SDS011;6548;49.996;8.238;2022-10-16T15:22:52;5.57;;;1.95;;
12966;SDS011;6548;49.996;8.238;2022-10-16T15:25:29;3.25;;;2.28;;
12966;SDS011;6548;49.996;8.238;2022-10-16T15:27:59;3.05;;;1.95;;
12966;SDS011;6548;49.996;8.238;2022-10-16T15:30:25;2.92;;;2.20;;
12966;SDS011;6548;49.996;8.238;2022-10-16T15:32:51;4.22;;;2.55;;
12966;SDS011;6548;49.996;8.238;2022-10-16T15:35:17;3.33;;;2.22;;
12966;SDS011;6548;49.996;8.238;2022-10-16T15:37:43;5.28;;;2.47;;
12966;SDS011;6548;49.996;8.238;2022-10-16T15:40:09;2.92;;;2.28;;
12966;SDS011;6548;49.996;8.238;2022-10-16T15:42:35;3.90;;;2.45;;
12966;SDS011;6548;49.996;8.238;2022-10-16T15:45:01;2.40;;;2.20;;
12966;SDS011;6548;49.996;8.238;2022-10-16T15:47:28;2.53;;;2.15;;
12966;SDS011;6548;49.996;8.238;2022-10-16T15:49:53;3.70;;;2.45;;
12966;SDS011;6548;49.996;8.238;2022-10-16T15:52:19;4.82;;;2.55;;
12966;SDS011;6548;49.996;8.238;2022-10-16T15:54:44;3.58;;;2.70;;
12966;SDS011;6548;49.996;8.238;2022-10-16T15:57:10;4.47;;;2.50;;
12966;SDS011;6548;49.996;8.238;2022-10-16T15:59:35;2.65;;;2.22;;
12966;SDS011;6548;49.996;8.238;2022-10-16T16:02:01;3.40;;;2.75;;
12966;SDS011;6548;49.996;8.238;2022-10-16T16:04:29;2.72;;;2.33;;
12966;SDS011;6548;49.996;8.238;2022-10-16T16:06:57;3.75;;;2.97;;
12966;SDS011;6548;49.996;8.238;2022-10-16T16:09:22;6.75;;;2.80;;
12966;SDS011;6548;49.996;8.238;2022-10-16T16:11:48;9.05;;;3.28;;
12966;SDS011;6548;49.996;8.238;2022-10-16T16:14:14;3.45;;;2.60;;
12966;SDS011;6548;49.996;8.238;2022-10-16T16:16:40;5.10;;;3.35;;
12966;SDS011;6548;49.996;8.238;2022-10-16T16:19:07;6.55;;;3.20;;
12966;SDS011;6548;49.996;8.238;2022-10-16T16:21:33;3.13;;;2.83;;
12966;SDS011;6548;49.996;8.238;2022-10-16T16:23:59;4.18;;;3.55;;
12966;SDS011;6548;49.996;8.238;2022-10-16T16:26:26;4.82;;;2.90;;
12966;SDS011;6548;49.996;8.238;2022-10-16T16:28:59;5.05;;;3.72;;
12966;SDS011;6548;49.996;8.238;2022-10-16T16:31:25;5.10;;;3.22;;
12966;SDS011;6548;49.996;8.238;2022-10-16T16:33:52;6.03;;;3.58;;
12966;SDS011;6548;49.996;8.238;2022-10-16T16:36:18;5.50;;;3.88;;
12966;SDS011;6548;49.996;8.238;2022-10-16T16:38:45;7.30;;;3.80;;
12966;SDS011;6548;49.996;8.238;2022-10-16T16:41:15;8.15;;;6.05;;
12966;SDS011;6548;49.996;8.238;2022-10-16T16:43:42;5.72;;;5.03;;
12966;SDS011;6548;49.996;8.238;2022-10-16T16:46:08;6.07;;;3.90;;
12966;SDS011;6548;49.996;8.238;2022-10-16T16:48:34;5.68;;;4.05;;
12966;SDS011;6548;49.996;8.238;2022-10-16T16:51:07;4.15;;;3.65;;
12966;SDS011;6548;49.996;8.238;2022-10-16T16:53:40;4.57;;;3.67;;
12966;SDS011;6548;49.996;8.238;2022-10-16T16:56:06;7.85;;;3.88;;
12966;SDS011;6548;49.996;8.238;2022-10-16T16:58:32;5.95;;;3.97;;
12966;SDS011;6548;49.996;8.238;2022-10-16T17:00:58;6.75;;;4.13;;
12966;SDS011;6548;49.996;8.238;2022-10-16T17:03:27;6.75;;;3.83;;
12966;SDS011;6548;49.996;8.238;2022-10-16T17:06:01;4.43;;;4.03;;
12966;SDS011;6548;49.996;8.238;2022-10-16T17:08:31;4.25;;;3.47;;
12966;SDS011;6548;49.996;8.238;2022-10-16T17:10:57;5.88;;;4.05;;
12966;SDS011;6548;49.996;8.238;2022-10-16T17:13:23;7.35;;;3.83;;
12966;SDS011;6548;49.996;8.238;2022-10-16T17:15:51;6.20;;;3.75;;
12966;SDS011;6548;49.996;8.238;2022-10-16T17:18:18;6.15;;;4.07;;
12966;SDS011;6548;49.996;8.238;2022-10-16T17:20:45;8.95;;;4.15;;
12966;SDS011;6548;49.996;8.238;2022-10-16T17:23:12;5.07;;;4.25;;